Latest Weather Observations for Scotts Peak

IDT60801

Issued at 8:05 am EDT Tuesday 21 October 2014 (issued every 30 minutes, with the page automatically refreshed every 10 minutes)

About weather observations | Map of weather stations | Latest weather observations for TAS | Other Formats
Station Details ID: 097083 Name: SCOTTS PEAK DAM Lat: -43.04 Lon: 146.27 Height: 408.0 m
Data from the previous 72 hours. | See also: Recent months at Scotts Peak
Date/Time
EDT
Temp
°C
App
Temp
°C
Dew
Point
Rel
Hum
%
Delta-T
°C
Wind Press
QNH
hPa
Press
MSL
hPa
Rain
since 9 am
mm
Dir
 
Spd
km/h
Gust
km/h
Spd
kts
Gust
kts
21/08:00am 4.4 1.5 2.8 89 0.7 SE 7 9 4 5 - - 0.0
21/07:30am 4.0 2.6 3.4 96 0.3 SE 0 0 0 0 - - 0.0
21/07:00am 3.9 2.5 3.5 97 0.2 CALM 0 0 0 0 - - 0.0
21/06:30am 3.1 0.2 2.8 98 0.1 SE 7 9 4 5 - - 0.0
21/06:00am 2.8 -0.5 2.4 97 0.2 SSE 9 11 5 6 - - 0.0
21/05:30am 3.0 -0.7 2.4 96 0.2 SSE 11 13 6 7 - - 0.0
21/05:00am 3.2 0.3 2.5 95 0.3 SSE 7 9 4 5 - - 0.0
21/04:30am 3.5 0.6 2.6 94 0.4 SSE 7 9 4 5 - - 0.0
21/04:00am 4.0 1.2 3.0 93 0.4 SSE 7 9 4 5 - - 0.0
21/03:30am 4.2 1.0 3.2 93 0.4 SSE 9 11 5 6 - - 0.0
21/03:00am 4.2 1.0 3.2 93 0.4 SSE 9 11 5 6 - - 0.0
21/02:30am 4.2 0.6 3.2 93 0.4 S 11 13 6 7 - - 0.0
21/02:00am 4.1 0.5 3.1 93 0.4 SSE 11 13 6 7 - - 0.0
21/01:30am 4.4 0.5 3.2 92 0.5 S 13 15 7 8 - - 0.0
21/01:00am 4.4 0.8 3.2 92 0.5 S 11 13 6 7 - - 0.0
21/12:30am 4.3 0.7 3.1 92 0.5 SSE 11 15 6 8 - - 0.0
21/12:00am 4.4 0.5 3.2 92 0.5 SSE 13 17 7 9 - - 0.0
 
Date/Time
EDT
Temp
°C
App
Temp
°C
Dew
Point
Rel
Hum
%
Delta-T
°C
Wind Press
QNH
hPa
Press
MSL
hPa
Rain
since 9 am
mm
Dir
 
Spd
km/h
Gust
km/h
Spd
kts
Gust
kts
20/11:30pm 4.3 0.3 3.0 91 0.5 SSE 13 17 7 9 - - 0.0
20/11:00pm 4.4 0.4 2.9 90 0.6 SE 13 19 7 10 - - 0.0
20/10:30pm 4.6 0.6 2.9 89 0.7 SE 13 17 7 9 - - 0.0
20/10:00pm 4.8 1.2 2.8 87 0.8 SE 11 17 6 9 - - 0.0
20/09:30pm 5.3 1.6 2.5 82 1.2 SSE 11 15 6 8 - - 0.0
20/09:00pm 5.8 1.7 2.3 78 1.5 S 13 19 7 10 - - 0.0
20/08:30pm 6.1 0.7 2.4 77 1.6 SW 20 28 11 15 - - 0.0
20/08:00pm 6.4 0.3 2.5 76 1.6 SW 24 30 13 16 - - 0.0
20/07:30pm 7.1 -0.2 2.4 72 2.0 SW 30 39 16 21 - - 0.0
20/07:00pm 8.5 2.0 2.5 66 2.6 SW 26 35 14 19 - - 0.0
20/06:30pm 9.5 3.0 2.8 63 2.9 SW 26 43 14 23 - - 0.0
20/06:00pm 10.6 3.9 3.4 61 3.2 SW 28 37 15 20 - - 0.0
20/05:30pm 10.8 3.9 2.6 57 3.6 SW 28 39 15 21 - - 0.0
20/05:00pm 11.8 5.7 2.8 54 4.0 SW 24 30 13 16 - - 0.0
20/04:30pm 13.4 8.8 3.5 51 4.6 W 17 26 9 14 - - 0.0
20/04:00pm 12.4 8.6 1.7 48 4.7 WNW 11 19 6 10 - - 0.0
20/03:30pm 14.1 10.9 4.9 54 4.4 NW 11 17 6 9 - - 0.0
20/03:00pm 15.0 10.9 4.4 49 5.0 NW 15 20 8 11 - - 0.0
20/02:30pm 12.0 7.3 0.8 46 4.8 W 15 30 8 16 - - 0.0
20/02:00pm 11.4 5.9 1.6 51 4.2 SW 20 26 11 14 - - 0.0
20/01:30pm 9.6 4.2 1.5 57 3.4 SW 19 24 10 13 - - 0.0
20/01:00pm 9.4 4.7 0.6 54 3.7 SSE 15 20 8 11 - - 0.0
20/12:30pm 9.9 5.9 0.8 53 3.8 ESE 11 19 6 10 - - 0.0
20/12:00pm 8.8 4.6 1.5 60 3.1 WSW 13 22 7 12 - - 0.0
20/11:30am 8.6 4.8 2.0 63 2.8 N 11 17 6 9 - - 0.0
20/11:00am 8.4 5.0 4.2 75 1.9 N 11 19 6 10 - - 0.0
20/10:30am 9.1 5.8 4.7 74 2.0 N 11 20 6 11 - - 0.0
20/10:00am 6.6 3.1 1.3 69 2.2 SSE 9 13 5 7 - - 0.0
20/09:30am 6.0 1.8 1.5 73 1.8 WSW 13 19 7 10 - - 0.0
20/09:00am 7.9 4.6 4.3 78 1.6 NNW 11 15 6 8 - - 21.8
20/08:30am 6.6 3.8 2.1 73 1.9 E 6 9 3 5 - - 21.8
20/08:00am 3.8 1.2 0.8 81 1.2 SSW 4 9 2 5 - - 21.8
20/07:30am 3.3 -0.2 1.2 86 0.8 WNW 9 17 5 9 - - 21.8
20/07:00am 2.6 -1.2 1.6 93 0.4 N 11 13 6 7 - - 21.8
20/06:30am 3.2 1.2 -0.1 79 1.3 CALM 0 7 0 4 - - 21.8
20/06:00am 2.8 -1.2 0.2 83 1.0 SW 11 15 6 8 - - 21.8
20/05:30am 3.5 -1.3 0.2 79 1.3 WSW 15 20 8 11 - - 21.8
20/05:00am 3.2 -0.8 0.4 82 1.1 W 11 13 6 7 - - 21.8
20/04:30am 3.1 -0.6 0.2 81 1.1 W 9 11 5 6 - - 21.8
20/04:00am 3.0 -1.0 0.2 82 1.1 W 11 15 6 8 - - 21.8
20/03:30am 3.1 -1.7 0.5 83 1.0 W 15 17 8 9 - - 21.8
20/03:00am 3.2 -0.8 0.4 82 1.1 W 11 15 6 8 - - 21.8
20/02:30am 3.1 -2.0 0.5 83 1.0 WSW 17 22 9 12 - - 21.8
20/02:00am 2.9 -1.9 0.5 84 0.9 WSW 15 19 8 10 - - 21.8
20/01:30am 2.4 -2.7 0.5 87 0.7 WSW 17 19 9 10 - - 21.8
20/01:00am 2.5 -2.6 0.7 88 0.7 SW 17 22 9 12 - - 21.8
20/12:30am 2.9 -0.6 1.0 87 0.7 SW 9 13 5 7 - - 21.8
20/12:00am 2.8 -1.5 1.2 89 0.6 W 13 20 7 11 - - 21.8
 
Date/Time
EDT
Temp
°C
App
Temp
°C
Dew
Point
Rel
Hum
%
Delta-T
°C
Wind Press
QNH
hPa
Press
MSL
hPa
Rain
since 9 am
mm
Dir
 
Spd
km/h
Gust
km/h
Spd
kts
Gust
kts
19/11:30pm 2.7 -1.6 1.2 90 0.6 WNW 13 22 7 12 - - 21.8
19/11:00pm 2.8 -2.7 0.7 86 0.8 S 19 30 10 16 - - 21.4
19/10:53pm 2.9 -4.6 1.0 87 0.7 SW 30 54 16 29 - - 21.4
19/10:52pm 3.0 -4.2 0.9 86 0.8 SW 28 43 15 23 - - 21.4
19/10:30pm 4.2 -0.3 0.0 74 1.6 WSW 13 22 7 12 - - 20.6
19/10:00pm 4.4 -0.7 0.7 77 1.5 SSW 17 30 9 16 - - 20.6
19/09:30pm 4.4 -0.9 1.8 83 1.1 WSW 19 33 10 18 - - 20.6
19/09:00pm 4.5 -1.0 2.0 84 1.0 WSW 20 30 11 16 - - 20.6
19/08:30pm 4.6 -1.2 2.5 86 0.9 WSW 22 33 12 18 - - 20.6
19/08:00pm 4.4 -1.6 3.4 93 0.4 WSW 24 35 13 19 - - 20.6
19/07:38pm 4.2 -2.6 3.0 92 0.5 WSW 28 52 15 28 - - 20.2
19/07:30pm 5.0 0.0 3.7 91 0.6 WSW 19 32 10 17 - - 19.0
19/07:00pm 5.0 -0.5 4.0 93 0.4 WSW 22 43 12 23 - - 19.0
19/06:47pm 4.9 -1.8 3.9 93 0.4 SW 28 46 15 25 - - 18.8
19/06:30pm 5.1 0.2 4.1 93 0.4 W 19 39 10 21 - - 18.6
19/06:00pm 5.2 0.3 4.3 94 0.4 W 19 30 10 16 - - 17.2
19/05:37pm 5.2 -2.7 4.2 93 0.4 SW 35 57 19 31 - - 17.0
19/05:30pm 5.5 -2.4 4.5 93 0.4 WSW 35 50 19 27 - - 16.6
19/05:02pm 5.7 -1.2 4.8 94 0.4 WSW 30 48 16 26 - - 14.8
19/05:00pm 5.8 -0.7 4.9 94 0.4 SW 28 37 15 20 - - 14.4
19/04:30pm 6.1 -0.7 5.2 94 0.4 WNW 30 39 16 21 - - 12.2
19/04:00pm 6.1 0.4 5.1 93 0.4 W 24 32 13 17 - - 10.6
19/03:30pm 6.3 0.7 5.6 95 0.3 W 24 30 13 16 - - 9.2
19/03:00pm 6.4 0.0 5.2 92 0.5 W 28 37 15 20 - - 8.4
19/02:30pm 6.5 -0.6 5.5 93 0.5 W 32 44 17 24 - - 7.2
19/02:04pm 6.6 -1.0 5.6 93 0.5 W 35 54 19 29 - - 5.0
19/02:00pm 6.6 -1.5 5.4 92 0.5 WSW 37 54 20 29 - - 4.6
19/01:43pm 6.7 -1.2 6.0 95 0.3 WSW 37 56 20 30 - - 2.8
19/01:30pm 6.8 -1.1 6.1 95 0.3 WSW 37 54 20 29 - - 1.6
19/01:17pm 7.0 -0.6 5.8 92 0.6 SW 35 54 19 29 - - 1.0
19/01:11pm 8.0 0.6 6.6 91 0.7 SW 35 48 19 26 - - 0.6
19/01:00pm 8.6 0.8 6.7 88 0.9 WNW 37 46 20 25 - - 0.4
19/12:30pm 9.4 1.2 6.7 83 1.3 WNW 39 50 21 27 - - 0.2
19/12:00pm 9.9 1.6 6.2 78 1.8 WNW 39 50 21 27 - - 0.2
19/11:39am 10.0 1.8 6.5 79 1.7 WNW 39 57 21 31 - - 0.2
19/11:30am 10.0 1.4 6.5 79 1.7 WNW 41 57 22 31 - - 0.2
19/11:22am 10.2 2.3 8.0 86 1.1 WNW 39 46 21 25 - - 0.2
19/11:15am 10.0 2.4 7.6 85 1.2 W 37 46 20 25 - - 0.2
19/11:00am 9.9 4.3 8.8 93 0.6 NW 28 46 15 25 - - 0.2
19/10:30am 9.5 1.0 8.7 95 0.4 NW 43 50 23 27 - - 0.2
19/10:00am 10.1 1.8 9.2 94 0.5 NW 43 50 23 27 - - 0.0
19/09:30am 9.9 2.3 9.1 95 0.4 NW 39 52 21 28 - - 0.0
19/09:00am 9.7 3.2 8.9 95 0.4 NW 33 43 18 23 - - 0.2
19/08:30am 9.5 2.2 8.7 95 0.4 NW 37 46 20 25 - - 0.2
19/08:00am 9.6 2.4 9.1 97 0.3 NW 37 48 20 26 - - 0.2
19/07:30am 9.7 2.4 8.9 95 0.4 WNW 37 50 20 27 - - 0.0
19/07:17am 9.7 4.2 9.1 96 0.3 WNW 28 46 15 25 - - 0.0
19/07:00am 9.9 1.4 9.1 95 0.4 NW 44 57 24 31 - - 0.0
19/06:52am 10.2 3.8 9.3 94 0.5 WNW 33 52 18 28 - - 0.0
19/06:30am 10.6 3.1 9.5 93 0.6 WNW 39 56 21 30 - - 0.0
19/06:00am 11.2 2.8 9.8 91 0.7 WNW 44 54 24 29 - - 0.0
19/05:30am 11.7 4.3 9.9 89 0.9 WNW 39 46 21 25 - - 0.0
19/05:00am 12.5 4.5 9.1 80 1.7 WNW 41 56 22 30 - - 0.0
19/04:30am 12.7 5.6 8.2 74 2.3 WNW 35 44 19 24 - - 0.0
19/04:00am 13.2 5.1 7.2 67 3.0 WNW 39 50 21 27 - - 0.0
19/03:30am 14.1 5.1 6.5 60 3.7 NW 43 67 23 36 - - 0.0
19/03:02am 14.7 4.3 6.0 56 4.3 NW 50 69 27 37 - - 0.0
19/03:00am 14.8 4.0 6.1 56 4.3 NW 52 69 28 37 - - 0.0
19/02:30am 15.4 3.1 5.3 51 4.9 NW 59 83 32 45 - - 0.0
19/02:18am 15.5 5.3 5.4 51 4.9 NW 48 67 26 36 - - 0.0
19/02:14am 15.6 6.3 5.2 50 5.0 NW 43 56 23 30 - - 0.0
19/02:00am 15.9 2.4 4.9 48 5.3 NW 65 93 35 50 - - 0.0
19/01:30am 15.8 3.1 5.1 49 5.2 NNW 61 82 33 44 - - 0.0
19/01:00am 16.1 3.3 4.5 46 5.6 NNW 61 91 33 49 - - 0.0
19/12:50am 15.9 4.1 4.6 47 5.4 NNW 56 78 30 42 - - 0.0
19/12:49am 15.8 4.4 4.8 48 5.3 NW 54 70 29 38 - - 0.0
19/12:30am 14.8 7.9 4.8 51 4.8 NNW 30 50 16 27 - - 0.0
19/12:17am 14.5 7.3 4.8 52 4.6 NNW 32 69 17 37 - - 0.0
19/12:00am 14.1 7.4 5.7 57 4.1 N 30 41 16 22 - - 0.0
 
Date/Time
EDT
Temp
°C
App
Temp
°C
Dew
Point
Rel
Hum
%
Delta-T
°C
Wind Press
QNH
hPa
Press
MSL
hPa
Rain
since 9 am
mm
Dir
 
Spd
km/h
Gust
km/h
Spd
kts
Gust
kts
18/11:50pm 14.4 7.1 5.5 55 4.3 N 33 52 18 28 - - 0.0
18/11:45pm 13.9 6.9 6.0 59 3.8 N 32 48 17 26 - - 0.0
18/11:30pm 13.5 8.2 6.6 63 3.4 N 24 30 13 16 - - 0.0
18/11:00pm 13.4 9.5 7.2 66 3.1 NNE 17 26 9 14 - - 0.0
18/10:30pm 12.6 9.5 7.1 69 2.7 N 13 20 7 11 - - 0.0
18/10:00pm 12.8 9.7 7.3 69 2.7 N 13 20 7 11 - - 0.0
18/09:30pm 12.6 8.7 7.1 69 2.7 N 17 24 9 13 - - 0.0
18/09:00pm 12.8 7.7 7.5 70 2.6 N 24 32 13 17 - - 0.0
18/08:30pm 13.0 8.3 7.7 70 2.7 N 22 28 12 15 - - 0.0
18/08:00pm 13.3 8.1 7.3 67 3.0 N 24 32 13 17 - - 0.0
18/07:30pm 13.4 8.6 7.2 66 3.1 N 22 32 12 17 - - 0.0
18/07:00pm 13.6 9.4 7.4 66 3.1 N 19 24 10 13 - - 0.0
18/06:30pm 14.4 7.7 7.5 63 3.5 NNW 32 39 17 21 - - 0.0
18/06:00pm 14.0 6.7 7.3 64 3.4 NNW 35 44 19 24 - - 0.0
18/05:30pm 14.9 5.9 7.2 60 3.9 NNW 44 56 24 30 - - 0.0
18/05:00pm 15.1 7.2 6.1 55 4.4 NNW 37 46 20 25 - - 0.0
18/04:30pm 15.2 6.6 4.6 49 5.1 NNW 39 48 21 26 - - 0.0
18/04:00pm 16.3 7.0 5.0 47 5.5 NNW 43 54 23 29 - - 0.0
18/03:30pm 15.6 5.8 5.2 50 5.0 NNW 46 56 25 30 - - 0.0
18/03:00pm 14.4 4.3 3.5 48 5.1 NNW 46 65 25 35 - - 0.0
18/02:44pm 14.4 7.3 3.8 49 4.9 NNW 30 54 16 29 - - 0.0
18/02:30pm 15.3 9.1 4.4 48 5.2 N 26 32 14 17 - - 0.0
18/02:00pm 14.9 9.0 3.7 47 5.2 N 24 30 13 16 - - 0.0
18/01:30pm 15.0 9.7 5.0 51 4.8 N 22 26 12 14 - - 0.0
18/01:00pm 14.2 9.0 5.6 56 4.2 N 22 30 12 16 - - 0.0
18/12:30pm 16.0 12.2 5.6 50 5.1 NNW 15 22 8 12 - - 0.0
18/12:00pm 16.6 13.2 6.1 50 5.2 NW 13 17 7 9 - - 0.0
18/11:30am 14.7 11.7 5.8 55 4.3 NW 11 15 6 8 - - 0.0
18/11:00am 14.7 10.5 5.5 54 4.5 N 17 26 9 14 - - 0.0
18/10:30am 14.9 11.0 7.0 59 4.0 NNW 17 20 9 11 - - 0.0
18/10:00am 12.6 9.0 6.9 68 2.8 NW 15 20 8 11 - - 0.0
18/09:30am 11.4 8.1 6.3 71 2.5 NW 13 17 7 9 - - 0.0
18/09:00am 9.4 7.0 5.4 76 1.9 NNW 7 11 4 6 - - 0.2
18/08:30am 8.5 5.6 4.9 78 1.6 NNE 9 17 5 9 - - 0.2

Other Formats:

Comma delimited format used in spreadsheet applications
http://www.bom.gov.au/fwo/IDT60801/IDT60801.95958.axf

JavaScript Object Notation format (JSON) in row-major order
http://www.bom.gov.au/fwo/IDT60801/IDT60801.95958.json